sensor_id;sensor_type;location;lat;lon;timestamp;P1;durP1;ratioP1;P2;durP2;ratioP2
2313;SDS011;42279;51.388;7.000;2022-08-21T00:00:46;8.00;;;6.70;;
2313;SDS011;42279;51.388;7.000;2022-08-21T00:03:13;8.33;;;7.77;;
2313;SDS011;42279;51.388;7.000;2022-08-21T00:05:48;9.47;;;8.20;;
2313;SDS011;42279;51.388;7.000;2022-08-21T00:08:15;13.27;;;9.70;;
2313;SDS011;42279;51.388;7.000;2022-08-21T00:10:42;10.90;;;9.17;;
2313;SDS011;42279;51.388;7.000;2022-08-21T00:13:09;11.00;;;10.00;;
2313;SDS011;42279;51.388;7.000;2022-08-21T00:15:36;7.97;;;7.33;;
2313;SDS011;42279;51.388;7.000;2022-08-21T00:18:03;9.43;;;8.63;;
2313;SDS011;42279;51.388;7.000;2022-08-21T00:20:29;8.33;;;7.70;;
2313;SDS011;42279;51.388;7.000;2022-08-21T00:22:55;12.73;;;7.30;;
2313;SDS011;42279;51.388;7.000;2022-08-21T00:25:21;7.43;;;6.90;;
2313;SDS011;42279;51.388;7.000;2022-08-21T00:27:47;7.60;;;6.87;;
2313;SDS011;42279;51.388;7.000;2022-08-21T00:30:15;7.43;;;6.83;;
2313;SDS011;42279;51.388;7.000;2022-08-21T00:32:41;7.60;;;7.20;;
2313;SDS011;42279;51.388;7.000;2022-08-21T00:35:08;7.77;;;6.70;;
2313;SDS011;42279;51.388;7.000;2022-08-21T00:37:34;7.97;;;7.07;;
2313;SDS011;42279;51.388;7.000;2022-08-21T00:40:00;7.40;;;6.90;;
2313;SDS011;42279;51.388;7.000;2022-08-21T00:42:27;11.20;;;7.13;;
2313;SDS011;42279;51.388;7.000;2022-08-21T00:44:55;7.60;;;6.97;;
2313;SDS011;42279;51.388;7.000;2022-08-21T00:47:21;8.57;;;7.83;;
2313;SDS011;42279;51.388;7.000;2022-08-21T00:49:47;10.80;;;7.97;;
2313;SDS011;42279;51.388;7.000;2022-08-21T00:52:15;8.57;;;7.80;;
2313;SDS011;42279;51.388;7.000;2022-08-21T00:54:42;7.67;;;7.07;;
2313;SDS011;42279;51.388;7.000;2022-08-21T00:57:16;9.37;;;8.77;;
2313;SDS011;42279;51.388;7.000;2022-08-21T00:59:44;11.17;;;9.77;;
2313;SDS011;42279;51.388;7.000;2022-08-21T01:02:11;8.20;;;7.57;;
2313;SDS011;42279;51.388;7.000;2022-08-21T01:04:37;8.90;;;7.50;;
2313;SDS011;42279;51.388;7.000;2022-08-21T01:07:03;8.77;;;7.87;;
2313;SDS011;42279;51.388;7.000;2022-08-21T01:09:29;7.20;;;6.60;;
2313;SDS011;42279;51.388;7.000;2022-08-21T01:11:55;8.00;;;7.60;;
2313;SDS011;42279;51.388;7.000;2022-08-21T01:14:21;8.73;;;7.77;;
2313;SDS011;42279;51.388;7.000;2022-08-21T01:16:48;10.03;;;9.10;;
2313;SDS011;42279;51.388;7.000;2022-08-21T01:19:15;9.73;;;9.03;;
2313;SDS011;42279;51.388;7.000;2022-08-21T01:21:42;10.43;;;9.63;;
2313;SDS011;42279;51.388;7.000;2022-08-21T01:24:08;9.87;;;8.97;;
2313;SDS011;42279;51.388;7.000;2022-08-21T01:26:35;14.00;;;12.37;;
2313;SDS011;42279;51.388;7.000;2022-08-21T01:29:12;11.07;;;10.07;;
2313;SDS011;42279;51.388;7.000;2022-08-21T01:31:39;10.50;;;9.60;;
2313;SDS011;42279;51.388;7.000;2022-08-21T01:34:05;11.67;;;10.53;;
2313;SDS011;42279;51.388;7.000;2022-08-21T01:36:31;12.33;;;10.37;;
2313;SDS011;42279;51.388;7.000;2022-08-21T01:38:58;14.90;;;10.17;;
2313;SDS011;42279;51.388;7.000;2022-08-21T01:41:23;11.60;;;10.60;;
2313;SDS011;42279;51.388;7.000;2022-08-21T01:43:49;13.87;;;12.20;;
2313;SDS011;42279;51.388;7.000;2022-08-21T01:46:16;12.57;;;11.40;;
2313;SDS011;42279;51.388;7.000;2022-08-21T01:48:42;18.00;;;11.40;;
2313;SDS011;42279;51.388;7.000;2022-08-21T01:51:08;12.07;;;11.07;;
2313;SDS011;42279;51.388;7.000;2022-08-21T01:53:34;13.20;;;12.27;;
2313;SDS011;42279;51.388;7.000;2022-08-21T01:56:02;13.40;;;12.00;;
2313;SDS011;42279;51.388;7.000;2022-08-21T01:58:28;11.63;;;10.63;;
2313;SDS011;42279;51.388;7.000;2022-08-21T02:00:54;12.57;;;11.27;;
2313;SDS011;42279;51.388;7.000;2022-08-21T02:03:20;9.23;;;8.30;;
2313;SDS011;42279;51.388;7.000;2022-08-21T02:05:46;10.00;;;8.93;;
2313;SDS011;42279;51.388;7.000;2022-08-21T02:08:12;8.70;;;8.00;;
2313;SDS011;42279;51.388;7.000;2022-08-21T02:10:38;11.60;;;9.30;;
2313;SDS011;42279;51.388;7.000;2022-08-21T02:13:06;11.07;;;8.80;;
2313;SDS011;42279;51.388;7.000;2022-08-21T02:15:32;8.90;;;8.20;;
2313;SDS011;42279;51.388;7.000;2022-08-21T02:17:59;9.50;;;8.73;;
2313;SDS011;42279;51.388;7.000;2022-08-21T02:20:27;10.40;;;9.40;;
2313;SDS011;42279;51.388;7.000;2022-08-21T02:22:54;9.70;;;8.80;;
2313;SDS011;42279;51.388;7.000;2022-08-21T02:25:22;10.20;;;9.33;;
2313;SDS011;42279;51.388;7.000;2022-08-21T02:27:49;8.90;;;8.40;;
2313;SDS011;42279;51.388;7.000;2022-08-21T02:30:16;11.43;;;8.37;;
2313;SDS011;42279;51.388;7.000;2022-08-21T02:32:42;10.03;;;8.80;;
2313;SDS011;42279;51.388;7.000;2022-08-21T02:35:09;8.70;;;8.10;;
2313;SDS011;42279;51.388;7.000;2022-08-21T02:37:43;8.80;;;8.17;;
2313;SDS011;42279;51.388;7.000;2022-08-21T02:40:10;8.97;;;8.17;;
2313;SDS011;42279;51.388;7.000;2022-08-21T02:42:36;11.67;;;10.77;;
2313;SDS011;42279;51.388;7.000;2022-08-21T02:45:03;8.13;;;7.60;;
2313;SDS011;42279;51.388;7.000;2022-08-21T02:47:29;8.80;;;8.10;;
2313;SDS011;42279;51.388;7.000;2022-08-21T02:49:55;8.90;;;8.40;;
2313;SDS011;42279;51.388;7.000;2022-08-21T02:52:21;13.37;;;9.37;;
2313;SDS011;42279;51.388;7.000;2022-08-21T02:54:49;8.77;;;8.27;;
2313;SDS011;42279;51.388;7.000;2022-08-21T02:57:14;10.63;;;9.60;;
2313;SDS011;42279;51.388;7.000;2022-08-21T02:59:41;10.10;;;9.10;;
2313;SDS011;42279;51.388;7.000;2022-08-21T03:02:07;9.20;;;8.40;;
2313;SDS011;42279;51.388;7.000;2022-08-21T03:04:33;9.23;;;8.40;;
2313;SDS011;42279;51.388;7.000;2022-08-21T03:06:58;8.70;;;7.97;;
2313;SDS011;42279;51.388;7.000;2022-08-21T03:09:25;8.53;;;7.83;;
2313;SDS011;42279;51.388;7.000;2022-08-21T03:59:31;9.33;;;8.47;;
2313;SDS011;42279;51.388;7.000;2022-08-21T04:01:58;8.20;;;7.40;;
2313;SDS011;42279;51.388;7.000;2022-08-21T04:04:24;8.20;;;7.40;;
2313;SDS011;42279;51.388;7.000;2022-08-21T04:06:51;9.27;;;8.67;;
2313;SDS011;42279;51.388;7.000;2022-08-21T04:09:17;8.53;;;7.97;;
2313;SDS011;42279;51.388;7.000;2022-08-21T04:11:43;8.80;;;8.20;;
2313;SDS011;42279;51.388;7.000;2022-08-21T05:00:55;11.43;;;10.43;;
2313;SDS011;42279;51.388;7.000;2022-08-21T05:03:25;11.27;;;10.43;;
2313;SDS011;42279;51.388;7.000;2022-08-21T05:05:51;13.03;;;11.93;;
2313;SDS011;42279;51.388;7.000;2022-08-21T05:23:58;10.40;;;9.60;;
2313;SDS011;42279;51.388;7.000;2022-08-21T06:46:49;10.83;;;9.90;;
2313;SDS011;42279;51.388;7.000;2022-08-21T06:57:00;8.60;;;7.50;;
2313;SDS011;42279;51.388;7.000;2022-08-21T06:59:26;8.37;;;7.70;;
2313;SDS011;42279;51.388;7.000;2022-08-21T07:04:27;8.07;;;7.27;;
2313;SDS011;42279;51.388;7.000;2022-08-21T07:06:54;6.80;;;6.30;;
2313;SDS011;42279;51.388;7.000;2022-08-21T07:11:56;7.87;;;7.10;;
2313;SDS011;42279;51.388;7.000;2022-08-21T07:22:40;5.60;;;5.30;;
2313;SDS011;42279;51.388;7.000;2022-08-21T07:25:07;8.00;;;6.30;;
2313;SDS011;42279;51.388;7.000;2022-08-21T07:30:09;6.20;;;5.70;;
2313;SDS011;42279;51.388;7.000;2022-08-21T07:32:35;6.17;;;5.77;;
2313;SDS011;42279;51.388;7.000;2022-08-21T07:35:01;7.60;;;6.30;;
2313;SDS011;42279;51.388;7.000;2022-08-21T07:40:40;6.80;;;6.30;;
2313;SDS011;42279;51.388;7.000;2022-08-21T07:45:42;5.77;;;5.27;;
2313;SDS011;42279;51.388;7.000;2022-08-21T07:50:34;6.07;;;5.67;;
2313;SDS011;42279;51.388;7.000;2022-08-21T07:53:00;7.27;;;5.40;;
2313;SDS011;42279;51.388;7.000;2022-08-21T07:55:27;5.17;;;4.83;;
2313;SDS011;42279;51.388;7.000;2022-08-21T07:57:53;5.20;;;4.80;;
2313;SDS011;42279;51.388;7.000;2022-08-21T08:00:21;6.00;;;5.50;;
2313;SDS011;42279;51.388;7.000;2022-08-21T08:02:48;6.40;;;5.03;;
2313;SDS011;42279;51.388;7.000;2022-08-21T08:05:15;4.67;;;4.47;;
2313;SDS011;42279;51.388;7.000;2022-08-21T08:07:41;4.87;;;4.57;;
2313;SDS011;42279;51.388;7.000;2022-08-21T08:10:08;5.67;;;5.17;;
2313;SDS011;42279;51.388;7.000;2022-08-21T08:12:34;6.33;;;4.70;;
2313;SDS011;42279;51.388;7.000;2022-08-21T08:15:02;4.07;;;3.67;;
2313;SDS011;42279;51.388;7.000;2022-08-21T08:17:29;4.67;;;4.27;;
2313;SDS011;42279;51.388;7.000;2022-08-21T08:19:57;3.50;;;3.40;;
2313;SDS011;42279;51.388;7.000;2022-08-21T08:22:23;3.40;;;3.20;;
2313;SDS011;42279;51.388;7.000;2022-08-21T08:24:50;3.80;;;3.50;;
2313;SDS011;42279;51.388;7.000;2022-08-21T08:27:17;3.83;;;3.07;;
2313;SDS011;42279;51.388;7.000;2022-08-21T08:29:43;4.33;;;2.37;;
2313;SDS011;42279;51.388;7.000;2022-08-21T08:32:09;3.00;;;2.80;;
2313;SDS011;42279;51.388;7.000;2022-08-21T08:34:36;2.87;;;2.83;;
2313;SDS011;42279;51.388;7.000;2022-08-21T08:37:03;2.70;;;2.60;;
2313;SDS011;42279;51.388;7.000;2022-08-21T08:39:31;3.77;;;2.60;;
2313;SDS011;42279;51.388;7.000;2022-08-21T08:42:14;2.57;;;2.47;;
2313;SDS011;42279;51.388;7.000;2022-08-21T08:44:41;3.20;;;3.10;;
2313;SDS011;42279;51.388;7.000;2022-08-21T08:47:08;2.27;;;2.20;;
2313;SDS011;42279;51.388;7.000;2022-08-21T08:54:57;2.90;;;2.73;;
2313;SDS011;42279;51.388;7.000;2022-08-21T08:57:28;2.90;;;2.67;;
2313;SDS011;42279;51.388;7.000;2022-08-21T08:59:56;2.40;;;2.30;;
2313;SDS011;42279;51.388;7.000;2022-08-21T09:02:25;2.67;;;2.47;;
2313;SDS011;42279;51.388;7.000;2022-08-21T09:04:54;2.73;;;2.60;;
2313;SDS011;42279;51.388;7.000;2022-08-21T09:07:40;2.40;;;2.30;;
2313;SDS011;42279;51.388;7.000;2022-08-21T09:15:20;2.37;;;2.13;;
2313;SDS011;42279;51.388;7.000;2022-08-21T09:18:11;3.13;;;2.80;;
2313;SDS011;42279;51.388;7.000;2022-08-21T09:28:31;1.73;;;1.63;;
2313;SDS011;42279;51.388;7.000;2022-08-21T09:30:57;2.03;;;1.93;;
2313;SDS011;42279;51.388;7.000;2022-08-21T09:33:27;2.67;;;2.57;;
2313;SDS011;42279;51.388;7.000;2022-08-21T09:35:54;2.23;;;2.10;;
2313;SDS011;42279;51.388;7.000;2022-08-21T09:38:33;2.20;;;2.10;;
2313;SDS011;42279;51.388;7.000;2022-08-21T09:41:04;2.47;;;2.37;;
2313;SDS011;42279;51.388;7.000;2022-08-21T09:43:30;2.30;;;2.20;;
2313;SDS011;42279;51.388;7.000;2022-08-21T09:48:44;2.30;;;2.20;;
2313;SDS011;42279;51.388;7.000;2022-08-21T09:51:18;2.77;;;2.67;;
2313;SDS011;42279;51.388;7.000;2022-08-21T09:53:47;2.20;;;2.10;;
2313;SDS011;42279;51.388;7.000;2022-08-21T09:56:18;5.03;;;2.40;;
2313;SDS011;42279;51.388;7.000;2022-08-21T09:59:12;2.13;;;2.00;;
2313;SDS011;42279;51.388;7.000;2022-08-21T10:01:43;2.33;;;2.23;;
2313;SDS011;42279;51.388;7.000;2022-08-21T10:04:10;1.50;;;1.50;;
2313;SDS011;42279;51.388;7.000;2022-08-21T10:06:36;1.57;;;1.50;;
2313;SDS011;42279;51.388;7.000;2022-08-21T10:09:12;2.23;;;2.13;;
2313;SDS011;42279;51.388;7.000;2022-08-21T10:11:39;1.80;;;1.70;;
2313;SDS011;42279;51.388;7.000;2022-08-21T10:14:26;2.33;;;2.23;;
2313;SDS011;42279;51.388;7.000;2022-08-21T10:17:07;1.53;;;1.43;;
2313;SDS011;42279;51.388;7.000;2022-08-21T10:41:24;2.33;;;2.13;;
2313;SDS011;42279;51.388;7.000;2022-08-21T10:49:32;2.03;;;1.90;;
2313;SDS011;42279;51.388;7.000;2022-08-21T10:54:59;1.53;;;1.43;;
2313;SDS011;42279;51.388;7.000;2022-08-21T10:59:55;1.80;;;1.70;;
2313;SDS011;42279;51.388;7.000;2022-08-21T11:02:32;1.40;;;1.30;;
2313;SDS011;42279;51.388;7.000;2022-08-21T11:05:13;2.40;;;2.00;;
2313;SDS011;42279;51.388;7.000;2022-08-21T11:07:48;4.03;;;3.80;;
2313;SDS011;42279;51.388;7.000;2022-08-21T11:10:21;1.50;;;1.50;;
2313;SDS011;42279;51.388;7.000;2022-08-21T11:12:53;2.63;;;1.87;;
2313;SDS011;42279;51.388;7.000;2022-08-21T11:18:07;2.17;;;1.43;;
2313;SDS011;42279;51.388;7.000;2022-08-21T11:23:47;1.70;;;1.70;;
2313;SDS011;42279;51.388;7.000;2022-08-21T11:26:19;1.80;;;1.80;;
2313;SDS011;42279;51.388;7.000;2022-08-21T11:28:58;1.77;;;1.77;;
2313;SDS011;42279;51.388;7.000;2022-08-21T11:37:09;2.87;;;2.10;;
2313;SDS011;42279;51.388;7.000;2022-08-21T11:45:18;2.40;;;1.33;;
2313;SDS011;42279;51.388;7.000;2022-08-21T11:50:36;1.47;;;1.40;;
2313;SDS011;42279;51.388;7.000;2022-08-21T11:53:47;1.27;;;1.27;;
2313;SDS011;42279;51.388;7.000;2022-08-21T11:56:04;1.30;;;1.30;;
2313;SDS011;42279;51.388;7.000;2022-08-21T12:01:04;1.23;;;1.23;;
2313;SDS011;42279;51.388;7.000;2022-08-21T12:03:32;2.27;;;1.50;;
2313;SDS011;42279;51.388;7.000;2022-08-21T12:06:12;1.37;;;1.37;;
2313;SDS011;42279;51.388;7.000;2022-08-21T12:08:45;4.57;;;4.27;;
2313;SDS011;42279;51.388;7.000;2022-08-21T12:16:37;1.40;;;1.40;;
2313;SDS011;42279;51.388;7.000;2022-08-21T12:24:44;1.20;;;1.10;;
2313;SDS011;42279;51.388;7.000;2022-08-21T12:51:16;1.30;;;1.20;;
2313;SDS011;42279;51.388;7.000;2022-08-21T12:53:50;3.73;;;1.60;;
2313;SDS011;42279;51.388;7.000;2022-08-21T12:56:18;1.70;;;1.70;;
2313;SDS011;42279;51.388;7.000;2022-08-21T12:59:10;1.90;;;1.80;;
2313;SDS011;42279;51.388;7.000;2022-08-21T13:01:49;1.10;;;1.10;;
2313;SDS011;42279;51.388;7.000;2022-08-21T13:04:38;1.00;;;1.00;;
2313;SDS011;42279;51.388;7.000;2022-08-21T13:08:10;1.23;;;1.13;;
2313;SDS011;42279;51.388;7.000;2022-08-21T13:10:26;1.10;;;1.10;;
2313;SDS011;42279;51.388;7.000;2022-08-21T13:13:03;2.20;;;1.27;;
2313;SDS011;42279;51.388;7.000;2022-08-21T13:15:46;1.57;;;1.57;;
2313;SDS011;42279;51.388;7.000;2022-08-21T13:21:11;0.90;;;0.90;;
2313;SDS011;42279;51.388;7.000;2022-08-21T13:23:43;1.43;;;1.43;;
2313;SDS011;42279;51.388;7.000;2022-08-21T13:26:17;1.47;;;1.10;;
2313;SDS011;42279;51.388;7.000;2022-08-21T13:28:49;2.10;;;2.00;;
2313;SDS011;42279;51.388;7.000;2022-08-21T13:31:31;1.90;;;1.87;;
2313;SDS011;42279;51.388;7.000;2022-08-21T13:33:58;1.57;;;1.40;;
2313;SDS011;42279;51.388;7.000;2022-08-21T13:36:25;0.90;;;0.90;;
2313;SDS011;42279;51.388;7.000;2022-08-21T13:38:53;0.93;;;0.93;;
2313;SDS011;42279;51.388;7.000;2022-08-21T13:41:30;1.90;;;1.80;;
2313;SDS011;42279;51.388;7.000;2022-08-21T13:54:59;1.13;;;1.13;;
2313;SDS011;42279;51.388;7.000;2022-08-21T13:57:30;1.40;;;1.40;;
2313;SDS011;42279;51.388;7.000;2022-08-21T14:02:56;1.20;;;1.20;;
2313;SDS011;42279;51.388;7.000;2022-08-21T14:05:27;1.40;;;1.40;;
2313;SDS011;42279;51.388;7.000;2022-08-21T14:08:13;1.20;;;1.20;;
2313;SDS011;42279;51.388;7.000;2022-08-21T14:10:47;2.00;;;1.90;;
2313;SDS011;42279;51.388;7.000;2022-08-21T14:13:28;3.03;;;2.20;;
2313;SDS011;42279;51.388;7.000;2022-08-21T14:15:59;4.90;;;2.33;;
2313;SDS011;42279;51.388;7.000;2022-08-21T14:18:28;1.80;;;1.80;;
2313;SDS011;42279;51.388;7.000;2022-08-21T14:21:10;2.53;;;1.60;;
2313;SDS011;42279;51.388;7.000;2022-08-21T14:23:41;1.87;;;1.80;;
2313;SDS011;42279;51.388;7.000;2022-08-21T14:26:09;2.33;;;2.23;;
2313;SDS011;42279;51.388;7.000;2022-08-21T14:28:51;2.87;;;1.10;;
2313;SDS011;42279;51.388;7.000;2022-08-21T14:31:19;1.57;;;1.57;;
2313;SDS011;42279;51.388;7.000;2022-08-21T14:33:46;1.50;;;1.50;;
2313;SDS011;42279;51.388;7.000;2022-08-21T14:36:17;1.40;;;1.33;;
2313;SDS011;42279;51.388;7.000;2022-08-21T14:38:50;1.10;;;1.00;;
2313;SDS011;42279;51.388;7.000;2022-08-21T14:41:21;2.20;;;1.50;;
2313;SDS011;42279;51.388;7.000;2022-08-21T14:43:48;1.43;;;1.27;;
2313;SDS011;42279;51.388;7.000;2022-08-21T14:46:17;1.57;;;1.30;;
2313;SDS011;42279;51.388;7.000;2022-08-21T14:48:46;1.00;;;1.00;;
2313;SDS011;42279;51.388;7.000;2022-08-21T14:51:14;1.43;;;1.33;;
2313;SDS011;42279;51.388;7.000;2022-08-21T14:53:43;1.20;;;1.20;;
2313;SDS011;42279;51.388;7.000;2022-08-21T14:56:11;1.87;;;1.77;;
2313;SDS011;42279;51.388;7.000;2022-08-21T14:58:42;1.80;;;1.40;;
2313;SDS011;42279;51.388;7.000;2022-08-21T15:01:10;1.53;;;1.50;;
2313;SDS011;42279;51.388;7.000;2022-08-21T15:03:41;2.97;;;1.57;;
2313;SDS011;42279;51.388;7.000;2022-08-21T15:06:16;4.00;;;1.80;;
2313;SDS011;42279;51.388;7.000;2022-08-21T15:19:30;2.03;;;1.93;;
2313;SDS011;42279;51.388;7.000;2022-08-21T15:22:01;3.30;;;1.80;;
2313;SDS011;42279;51.388;7.000;2022-08-21T15:24:28;1.83;;;1.73;;
2313;SDS011;42279;51.388;7.000;2022-08-21T15:26:54;1.40;;;1.30;;
2313;SDS011;42279;51.388;7.000;2022-08-21T15:29:20;1.80;;;1.70;;
2313;SDS011;42279;51.388;7.000;2022-08-21T15:32:13;1.50;;;1.50;;
2313;SDS011;42279;51.388;7.000;2022-08-21T15:34:41;1.83;;;1.60;;
2313;SDS011;42279;51.388;7.000;2022-08-21T15:37:10;1.83;;;1.67;;
2313;SDS011;42279;51.388;7.000;2022-08-21T15:39:45;23.07;;;21.93;;
2313;SDS011;42279;51.388;7.000;2022-08-21T15:42:11;3.93;;;2.77;;
2313;SDS011;42279;51.388;7.000;2022-08-21T15:44:39;2.37;;;2.20;;
2313;SDS011;42279;51.388;7.000;2022-08-21T15:47:12;1.50;;;1.40;;
2313;SDS011;42279;51.388;7.000;2022-08-21T15:49:39;2.53;;;2.00;;
2313;SDS011;42279;51.388;7.000;2022-08-21T15:52:07;1.80;;;1.70;;
2313;SDS011;42279;51.388;7.000;2022-08-21T15:54:33;3.27;;;1.70;;
2313;SDS011;42279;51.388;7.000;2022-08-21T15:57:00;1.63;;;1.53;;
2313;SDS011;42279;51.388;7.000;2022-08-21T15:59:26;1.80;;;1.70;;
2313;SDS011;42279;51.388;7.000;2022-08-21T16:01:52;1.70;;;1.63;;
2313;SDS011;42279;51.388;7.000;2022-08-21T16:04:21;3.30;;;1.93;;
2313;SDS011;42279;51.388;7.000;2022-08-21T16:06:48;2.20;;;2.10;;
2313;SDS011;42279;51.388;7.000;2022-08-21T16:09:14;1.83;;;1.73;;
2313;SDS011;42279;51.388;7.000;2022-08-21T16:14:38;1.97;;;1.87;;
2313;SDS011;42279;51.388;7.000;2022-08-21T16:19:53;3.53;;;3.07;;
2313;SDS011;42279;51.388;7.000;2022-08-21T16:22:20;2.20;;;2.10;;
2313;SDS011;42279;51.388;7.000;2022-08-21T16:27:23;3.00;;;2.90;;
2313;SDS011;42279;51.388;7.000;2022-08-21T16:32:49;2.77;;;2.67;;
2313;SDS011;42279;51.388;7.000;2022-08-21T16:35:35;3.57;;;3.27;;
2313;SDS011;42279;51.388;7.000;2022-08-21T16:38:11;4.40;;;4.10;;
2313;SDS011;42279;51.388;7.000;2022-08-21T16:40:45;4.60;;;4.30;;
2313;SDS011;42279;51.388;7.000;2022-08-21T16:43:15;8.40;;;7.80;;
2313;SDS011;42279;51.388;7.000;2022-08-21T16:45:42;6.23;;;5.77;;
2313;SDS011;42279;51.388;7.000;2022-08-21T16:50:57;4.87;;;2.40;;
2313;SDS011;42279;51.388;7.000;2022-08-21T16:53:24;2.17;;;2.07;;
2313;SDS011;42279;51.388;7.000;2022-08-21T16:55:51;3.57;;;3.27;;
2313;SDS011;42279;51.388;7.000;2022-08-21T16:58:28;3.37;;;1.97;;
2313;SDS011;42279;51.388;7.000;2022-08-21T17:00:58;2.43;;;2.23;;
2313;SDS011;42279;51.388;7.000;2022-08-21T17:03:46;3.40;;;2.63;;
2313;SDS011;42279;51.388;7.000;2022-08-21T17:06:30;4.27;;;3.83;;
2313;SDS011;42279;51.388;7.000;2022-08-21T17:08:58;4.20;;;3.90;;
2313;SDS011;42279;51.388;7.000;2022-08-21T17:11:36;6.80;;;5.27;;
2313;SDS011;42279;51.388;7.000;2022-08-21T17:14:34;5.53;;;5.13;;
2313;SDS011;42279;51.388;7.000;2022-08-21T17:17:01;4.90;;;4.50;;
2313;SDS011;42279;51.388;7.000;2022-08-21T17:19:28;3.57;;;3.37;;
2313;SDS011;42279;51.388;7.000;2022-08-21T17:21:54;3.40;;;3.30;;
2313;SDS011;42279;51.388;7.000;2022-08-21T17:24:21;4.37;;;3.87;;
2313;SDS011;42279;51.388;7.000;2022-08-21T17:26:47;4.30;;;4.10;;
2313;SDS011;42279;51.388;7.000;2022-08-21T17:29:16;3.77;;;3.47;;
2313;SDS011;42279;51.388;7.000;2022-08-21T17:31:44;2.33;;;2.23;;
2313;SDS011;42279;51.388;7.000;2022-08-21T17:34:16;3.20;;;2.93;;
2313;SDS011;42279;51.388;7.000;2022-08-21T17:37:07;3.50;;;1.90;;
2313;SDS011;42279;51.388;7.000;2022-08-21T17:39:46;2.87;;;2.63;;
2313;SDS011;42279;51.388;7.000;2022-08-21T17:42:15;2.30;;;1.53;;
2313;SDS011;42279;51.388;7.000;2022-08-21T17:44:46;2.00;;;2.00;;
2313;SDS011;42279;51.388;7.000;2022-08-21T17:48:02;1.93;;;1.80;;
2313;SDS011;42279;51.388;7.000;2022-08-21T17:50:30;3.20;;;3.00;;
2313;SDS011;42279;51.388;7.000;2022-08-21T17:53:00;5.00;;;2.43;;
2313;SDS011;42279;51.388;7.000;2022-08-21T17:55:29;1.73;;;1.70;;
2313;SDS011;42279;51.388;7.000;2022-08-21T17:58:02;2.43;;;2.33;;
2313;SDS011;42279;51.388;7.000;2022-08-21T18:03:38;2.63;;;2.47;;
2313;SDS011;42279;51.388;7.000;2022-08-21T18:06:07;2.37;;;2.17;;
2313;SDS011;42279;51.388;7.000;2022-08-21T18:08:41;4.47;;;2.27;;
2313;SDS011;42279;51.388;7.000;2022-08-21T18:11:10;2.00;;;1.77;;
2313;SDS011;42279;51.388;7.000;2022-08-21T18:13:39;2.50;;;2.30;;
2313;SDS011;42279;51.388;7.000;2022-08-21T18:16:09;4.13;;;3.97;;
2313;SDS011;42279;51.388;7.000;2022-08-21T18:18:43;2.10;;;1.97;;
2313;SDS011;42279;51.388;7.000;2022-08-21T18:21:10;2.20;;;2.00;;
2313;SDS011;42279;51.388;7.000;2022-08-21T18:23:39;4.53;;;2.30;;
2313;SDS011;42279;51.388;7.000;2022-08-21T18:26:13;2.53;;;2.43;;
2313;SDS011;42279;51.388;7.000;2022-08-21T18:28:54;4.37;;;3.97;;
2313;SDS011;42279;51.388;7.000;2022-08-21T18:31:37;5.23;;;4.80;;
2313;SDS011;42279;51.388;7.000;2022-08-21T18:34:16;5.77;;;5.10;;
2313;SDS011;42279;51.388;7.000;2022-08-21T18:36:49;5.57;;;5.20;;
2313;SDS011;42279;51.388;7.000;2022-08-21T18:39:15;11.60;;;10.43;;
2313;SDS011;42279;51.388;7.000;2022-08-21T18:41:42;9.30;;;8.40;;
2313;SDS011;42279;51.388;7.000;2022-08-21T18:44:18;11.53;;;10.43;;
2313;SDS011;42279;51.388;7.000;2022-08-21T18:46:59;10.97;;;9.77;;
2313;SDS011;42279;51.388;7.000;2022-08-21T18:49:32;11.00;;;6.20;;
2313;SDS011;42279;51.388;7.000;2022-08-21T18:52:01;6.47;;;4.00;;
2313;SDS011;42279;51.388;7.000;2022-08-21T18:54:38;3.60;;;2.70;;
2313;SDS011;42279;51.388;7.000;2022-08-21T18:57:06;4.33;;;2.53;;
2313;SDS011;42279;51.388;7.000;2022-08-21T18:59:33;2.70;;;2.60;;
2313;SDS011;42279;51.388;7.000;2022-08-21T19:02:04;3.40;;;3.00;;
2313;SDS011;42279;51.388;7.000;2022-08-21T19:04:33;9.30;;;3.60;;
2313;SDS011;42279;51.388;7.000;2022-08-21T19:07:20;3.80;;;3.43;;
2313;SDS011;42279;51.388;7.000;2022-08-21T19:12:34;3.23;;;2.90;;
2313;SDS011;42279;51.388;7.000;2022-08-21T19:20:39;2.17;;;2.07;;
2313;SDS011;42279;51.388;7.000;2022-08-21T19:34:32;4.90;;;2.90;;
2313;SDS011;42279;51.388;7.000;2022-08-21T19:37:07;2.37;;;2.27;;
2313;SDS011;42279;51.388;7.000;2022-08-21T19:42:35;4.07;;;2.73;;
2313;SDS011;42279;51.388;7.000;2022-08-21T19:45:07;2.90;;;2.70;;
2313;SDS011;42279;51.388;7.000;2022-08-21T19:47:33;2.90;;;2.60;;
2313;SDS011;42279;51.388;7.000;2022-08-21T19:50:04;8.20;;;4.30;;
2313;SDS011;42279;51.388;7.000;2022-08-21T19:52:36;5.03;;;3.73;;
2313;SDS011;42279;51.388;7.000;2022-08-21T19:55:09;3.40;;;2.30;;
2313;SDS011;42279;51.388;7.000;2022-08-21T19:57:36;3.03;;;2.73;;
2313;SDS011;42279;51.388;7.000;2022-08-21T20:00:09;2.40;;;2.30;;
2313;SDS011;42279;51.388;7.000;2022-08-21T20:02:36;5.70;;;5.20;;
2313;SDS011;42279;51.388;7.000;2022-08-21T20:05:06;4.67;;;4.33;;
2313;SDS011;42279;51.388;7.000;2022-08-21T20:07:32;7.83;;;2.87;;
2313;SDS011;42279;51.388;7.000;2022-08-21T20:10:01;2.90;;;2.80;;
2313;SDS011;42279;51.388;7.000;2022-08-21T20:12:27;2.67;;;2.50;;
2313;SDS011;42279;51.388;7.000;2022-08-21T20:14:53;6.20;;;2.97;;
2313;SDS011;42279;51.388;7.000;2022-08-21T20:17:20;3.40;;;3.13;;
2313;SDS011;42279;51.388;7.000;2022-08-21T20:19:46;4.10;;;3.97;;
2313;SDS011;42279;51.388;7.000;2022-08-21T20:22:13;4.53;;;3.13;;
2313;SDS011;42279;51.388;7.000;2022-08-21T20:24:39;3.13;;;2.80;;
2313;SDS011;42279;51.388;7.000;2022-08-21T20:27:08;3.10;;;2.90;;
2313;SDS011;42279;51.388;7.000;2022-08-21T20:29:51;3.23;;;3.03;;
2313;SDS011;42279;51.388;7.000;2022-08-21T20:32:27;3.20;;;3.10;;
2313;SDS011;42279;51.388;7.000;2022-08-21T20:34:53;3.67;;;3.30;;
2313;SDS011;42279;51.388;7.000;2022-08-21T20:37:19;5.67;;;4.03;;
2313;SDS011;42279;51.388;7.000;2022-08-21T21:12:21;3.87;;;3.57;;
2313;SDS011;42279;51.388;7.000;2022-08-21T21:14:52;2.80;;;2.80;;
2313;SDS011;42279;51.388;7.000;2022-08-21T21:20:26;3.43;;;3.33;;
2313;SDS011;42279;51.388;7.000;2022-08-21T21:22:56;4.37;;;3.77;;
2313;SDS011;42279;51.388;7.000;2022-08-21T21:25:31;4.20;;;3.90;;
2313;SDS011;42279;51.388;7.000;2022-08-21T21:28:09;3.53;;;3.23;;
2313;SDS011;42279;51.388;7.000;2022-08-21T21:30:41;4.20;;;3.93;;
2313;SDS011;42279;51.388;7.000;2022-08-21T21:33:08;3.97;;;3.70;;
2313;SDS011;42279;51.388;7.000;2022-08-21T21:35:36;3.63;;;3.53;;
2313;SDS011;42279;51.388;7.000;2022-08-21T21:40:49;4.40;;;4.30;;
2313;SDS011;42279;51.388;7.000;2022-08-21T21:51:43;3.80;;;3.50;;
2313;SDS011;42279;51.388;7.000;2022-08-21T21:59:56;3.90;;;3.70;;
2313;SDS011;42279;51.388;7.000;2022-08-21T22:04:53;3.80;;;3.67;;
2313;SDS011;42279;51.388;7.000;2022-08-21T22:10:14;4.13;;;3.77;;
2313;SDS011;42279;51.388;7.000;2022-08-21T22:12:44;4.10;;;3.77;;
2313;SDS011;42279;51.388;7.000;2022-08-21T22:15:12;3.40;;;3.20;;
2313;SDS011;42279;51.388;7.000;2022-08-21T22:17:49;3.53;;;3.43;;
2313;SDS011;42279;51.388;7.000;2022-08-21T22:23:03;4.27;;;3.87;;
2313;SDS011;42279;51.388;7.000;2022-08-21T22:25:35;3.77;;;3.53;;
2313;SDS011;42279;51.388;7.000;2022-08-21T22:28:16;3.90;;;3.80;;
2313;SDS011;42279;51.388;7.000;2022-08-21T22:30:49;3.80;;;3.53;;
2313;SDS011;42279;51.388;7.000;2022-08-21T22:33:19;4.90;;;4.50;;
2313;SDS011;42279;51.388;7.000;2022-08-21T22:35:46;4.90;;;4.37;;
2313;SDS011;42279;51.388;7.000;2022-08-21T22:38:17;4.10;;;3.80;;
2313;SDS011;42279;51.388;7.000;2022-08-21T22:40:43;4.17;;;3.97;;
2313;SDS011;42279;51.388;7.000;2022-08-21T22:43:15;3.83;;;3.77;;
2313;SDS011;42279;51.388;7.000;2022-08-21T22:48:17;4.53;;;4.43;;
2313;SDS011;42279;51.388;7.000;2022-08-21T22:50:44;4.80;;;4.60;;
2313;SDS011;42279;51.388;7.000;2022-08-21T22:53:10;4.43;;;4.13;;
2313;SDS011;42279;51.388;7.000;2022-08-21T22:55:53;4.40;;;4.10;;
2313;SDS011;42279;51.388;7.000;2022-08-21T22:58:20;4.30;;;4.10;;
2313;SDS011;42279;51.388;7.000;2022-08-21T23:00:58;4.50;;;4.30;;